createdAt,value
2022-08-30T00:02:26.890Z,54.40
2022-08-30T00:05:18.257Z,54.30
2022-08-30T00:08:07.913Z,54.50
2022-08-30T00:10:57.373Z,54.60
2022-08-30T00:13:48.975Z,54.70
2022-08-30T00:16:38.363Z,54.60
2022-08-30T00:19:29.214Z,54.60
2022-08-30T00:22:18.709Z,54.90
2022-08-30T00:25:09.626Z,54.90
2022-08-30T00:27:59.089Z,54.80
2022-08-30T00:30:49.246Z,54.80
2022-08-30T00:33:40.404Z,54.90
2022-08-30T00:36:31.108Z,55.00
2022-08-30T00:39:20.491Z,54.90
2022-08-30T00:42:11.197Z,55.10
2022-08-30T00:45:01.493Z,55.10
2022-08-30T00:47:51.485Z,55.20
2022-08-30T00:51:00.138Z,55.30
2022-08-30T00:53:57.804Z,55.50
2022-08-30T00:56:48.341Z,55.40
2022-08-30T00:59:38.366Z,55.50
2022-08-30T01:02:33.401Z,55.60
2022-08-30T01:05:24.075Z,55.60
2022-08-30T01:08:15.642Z,55.80
2022-08-30T01:11:07.057Z,55.80
2022-08-30T01:13:57.984Z,56.00
2022-08-30T01:16:47.656Z,56.00
2022-08-30T01:19:43.426Z,56.00
2022-08-30T01:22:41.932Z,56.20
2022-08-30T01:25:38.245Z,56.20
2022-08-30T01:28:30.390Z,56.20
2022-08-30T01:31:19.934Z,56.30
2022-08-30T01:34:10.410Z,56.40
2022-08-30T01:36:59.839Z,56.50
2022-08-30T01:39:49.470Z,56.40
2022-08-30T01:42:40.302Z,56.50
2022-08-30T01:45:29.923Z,56.50
2022-08-30T01:48:19.391Z,56.40
2022-08-30T01:51:12.057Z,56.60
2022-08-30T01:54:02.028Z,56.60
2022-08-30T01:56:51.569Z,56.60
2022-08-30T01:59:47.635Z,56.70
2022-08-30T02:02:37.995Z,56.80
2022-08-30T02:05:27.695Z,56.80
2022-08-30T02:08:17.198Z,57.20
2022-08-30T02:11:07.068Z,56.90
2022-08-30T02:13:56.512Z,57.00
2022-08-30T02:16:48.509Z,57.00
2022-08-30T02:19:38.661Z,57.70
2022-08-30T02:22:28.162Z,57.10
2022-08-30T02:25:20.562Z,57.10
2022-08-30T02:28:10.851Z,57.20
2022-08-30T02:31:04.685Z,57.20
2022-08-30T02:33:57.170Z,57.40
2022-08-30T02:36:47.481Z,57.30
2022-08-30T02:39:37.042Z,57.40
2022-08-30T02:42:26.386Z,57.40
2022-08-30T02:45:16.650Z,57.50
2022-08-30T02:48:08.721Z,57.50
2022-08-30T02:51:10.555Z,57.50
2022-08-30T02:54:00.757Z,57.70
2022-08-30T02:56:51.037Z,57.40
2022-08-30T02:59:44.170Z,57.50
2022-08-30T03:02:33.558Z,57.50
2022-08-30T03:05:23.165Z,57.70
2022-08-30T03:08:14.069Z,57.80
2022-08-30T03:11:04.602Z,58.00
2022-08-30T03:13:54.014Z,58.10
2022-08-30T03:16:43.493Z,58.10
2022-08-30T03:19:32.986Z,58.20
2022-08-30T03:22:22.852Z,58.20
2022-08-30T03:25:13.939Z,58.20
2022-08-30T03:28:03.644Z,58.20
2022-08-30T03:30:53.010Z,58.10
2022-08-30T03:33:42.465Z,58.20
2022-08-30T03:36:31.866Z,58.90
2022-08-30T03:39:23.155Z,58.30
2022-08-30T03:42:14.190Z,58.20
2022-08-30T03:45:07.455Z,58.20
2022-08-30T03:47:56.873Z,58.20
2022-08-30T03:50:46.201Z,58.20
2022-08-30T03:53:35.657Z,58.20
2022-08-30T03:56:25.169Z,58.30
2022-08-30T03:59:16.470Z,58.40
2022-08-30T04:02:06.148Z,58.40
2022-08-30T04:04:55.553Z,58.60
2022-08-30T04:07:45.880Z,58.70
2022-08-30T04:10:35.390Z,58.70
2022-08-30T04:13:25.787Z,58.80
2022-08-30T04:16:17.295Z,58.90
2022-08-30T04:19:06.742Z,59.00
2022-08-30T04:21:57.359Z,59.10
2022-08-30T04:24:46.722Z,59.20
2022-08-30T04:27:36.238Z,59.30
2022-08-30T04:30:25.686Z,59.30
2022-08-30T04:33:17.729Z,59.50
2022-08-30T04:36:09.345Z,59.70
2022-08-30T04:38:58.685Z,59.80
2022-08-30T04:41:48.478Z,59.80
2022-08-30T04:44:37.890Z,60.60
2022-08-30T04:47:27.559Z,60.10
2022-08-30T04:50:21.539Z,60.10
2022-08-30T04:53:10.913Z,60.10
2022-08-30T04:56:00.341Z,60.00
2022-08-30T04:58:52.392Z,60.30
2022-08-30T05:01:45.631Z,60.50
2022-08-30T05:04:35.317Z,60.50
2022-08-30T05:07:26.146Z,60.80
2022-08-30T05:10:15.603Z,61.10
2022-08-30T05:13:05.119Z,61.20
2022-08-30T05:15:54.563Z,61.30
2022-08-30T05:18:44.549Z,61.50
2022-08-30T05:21:33.962Z,61.40
2022-08-30T05:24:24.788Z,61.50
2022-08-30T05:27:14.200Z,61.80
2022-08-30T05:30:03.826Z,62.10
2022-08-30T05:32:53.789Z,63.10
2022-08-30T05:35:43.337Z,64.70
2022-08-30T05:38:32.700Z,66.30
2022-08-30T05:41:26.410Z,67.90
2022-08-30T05:44:16.560Z,69.20
2022-08-30T05:47:06.501Z,70.10
2022-08-30T05:49:56.122Z,70.90
2022-08-30T05:52:46.168Z,71.40
2022-08-30T05:55:35.653Z,71.40
2022-08-30T05:58:26.357Z,71.40
2022-08-30T06:01:25.222Z,71.20
2022-08-30T06:04:15.450Z,70.40
2022-08-30T06:07:05.652Z,70.00
2022-08-30T06:09:55.017Z,69.20
2022-08-30T06:12:44.391Z,68.60
2022-08-30T06:15:35.148Z,67.90
2022-08-30T06:18:28.738Z,67.10
2022-08-30T06:21:18.965Z,66.90
2022-08-30T06:24:11.633Z,66.50
2022-08-30T06:27:01.007Z,66.10
2022-08-30T06:29:52.952Z,65.70
2022-08-30T06:32:43.772Z,65.20
2022-08-30T06:35:38.229Z,65.10
2022-08-30T06:38:36.528Z,64.80
2022-08-30T06:41:30.298Z,64.70
2022-08-30T06:44:19.653Z,64.20
2022-08-30T06:47:09.073Z,63.60
2022-08-30T06:50:00.966Z,63.10
2022-08-30T06:52:50.434Z,62.50
2022-08-30T06:55:39.834Z,61.80
2022-08-30T06:58:30.544Z,61.00
2022-08-30T07:01:23.132Z,60.50
2022-08-30T07:04:12.505Z,59.90
2022-08-30T07:07:03.273Z,59.50
2022-08-30T07:09:53.897Z,59.10
2022-08-30T07:12:43.400Z,59.00
2022-08-30T07:15:33.952Z,58.90
2022-08-30T07:18:45.535Z,58.50
2022-08-30T07:21:38.043Z,58.30
2022-08-30T07:24:28.735Z,58.60
2022-08-30T07:27:18.205Z,58.50
2022-08-30T07:30:09.733Z,57.80
2022-08-30T07:32:59.999Z,57.20
2022-08-30T07:35:49.362Z,56.10
2022-08-30T07:38:39.142Z,55.40
2022-08-30T07:41:34.119Z,54.80
2022-08-30T07:44:25.089Z,54.10
2022-08-30T07:47:14.637Z,54.10
2022-08-30T07:50:05.041Z,53.80
2022-08-30T07:52:54.639Z,53.70
2022-08-30T07:55:44.168Z,53.50
2022-08-30T07:58:35.181Z,53.00
2022-08-30T08:01:25.567Z,52.20
2022-08-30T08:04:15.110Z,52.30
2022-08-30T08:07:04.984Z,52.50
2022-08-30T08:09:54.408Z,52.60
2022-08-30T08:12:43.822Z,52.50
2022-08-30T08:15:35.177Z,52.30
2022-08-30T08:18:24.639Z,51.30
2022-08-30T08:21:14.063Z,50.10
2022-08-30T08:24:04.341Z,49.10
2022-08-30T08:26:53.888Z,48.80
2022-08-30T08:29:43.217Z,48.80
2022-08-30T08:32:34.020Z,48.80
2022-08-30T08:35:23.524Z,49.10
2022-08-30T08:38:13.728Z,49.40
2022-08-30T08:41:10.525Z,49.60
2022-08-30T08:44:00.594Z,49.70
2022-08-30T08:46:58.113Z,49.80
2022-08-30T08:49:54.190Z,47.80
2022-08-30T08:53:25.044Z,46.30
2022-08-30T08:56:23.946Z,44.90
2022-08-30T08:59:16.679Z,44.10
2022-08-30T09:02:27.410Z,43.70
2022-08-30T09:05:22.858Z,43.20
2022-08-30T09:08:16.192Z,44.60
2022-08-30T09:11:13.402Z,45.40
2022-08-30T09:14:03.170Z,45.70
2022-08-30T09:17:02.787Z,45.50
2022-08-30T09:20:01.050Z,44.60
2022-08-30T09:22:51.846Z,44.10
2022-08-30T09:25:54.419Z,43.80
2022-08-30T09:28:49.785Z,43.40
2022-08-30T09:32:01.357Z,43.50
2022-08-30T09:35:00.684Z,43.50
2022-08-30T09:37:57.803Z,43.70
2022-08-30T09:40:51.175Z,43.90
2022-08-30T09:43:40.622Z,44.20
2022-08-30T09:46:30.623Z,44.40
2022-08-30T09:49:35.869Z,44.50
2022-08-30T09:52:42.894Z,44.20
2022-08-30T09:56:00.333Z,44.20
2022-08-30T09:59:04.583Z,44.10
2022-08-30T10:02:02.811Z,44.00
2022-08-30T10:05:04.085Z,44.30
2022-08-30T10:08:04.305Z,44.40
2022-08-30T10:10:59.999Z,44.50
2022-08-30T10:14:48.876Z,44.60
2022-08-30T10:17:49.944Z,44.60
2022-08-30T10:20:50.216Z,45.00
2022-08-30T10:23:47.102Z,46.30
2022-08-30T10:26:43.674Z,47.70
2022-08-30T10:29:43.389Z,49.20
2022-08-30T10:32:40.597Z,48.90
2022-08-30T10:35:38.589Z,48.50
2022-08-30T10:38:33.275Z,47.50
2022-08-30T10:41:35.778Z,46.10
2022-08-30T10:44:32.662Z,45.10
2022-08-30T10:47:32.095Z,44.60
2022-08-30T10:50:28.519Z,44.30
2022-08-30T10:53:21.433Z,44.50
2022-08-30T10:56:16.169Z,45.40
2022-08-30T10:59:07.397Z,44.70
2022-08-30T11:02:24.850Z,45.00
2022-08-30T11:05:48.599Z,44.80
2022-08-30T11:09:16.508Z,45.00
2022-08-30T11:12:38.001Z,45.10
2022-08-30T11:15:31.558Z,44.90
2022-08-30T11:18:23.466Z,45.60
2022-08-30T11:21:25.178Z,45.10
2022-08-30T11:24:17.981Z,44.10
2022-08-30T11:27:07.451Z,43.70
2022-08-30T11:29:59.782Z,42.70
2022-08-30T11:33:09.382Z,42.00
2022-08-30T11:36:00.484Z,41.30
2022-08-30T11:39:04.177Z,41.30
2022-08-30T11:42:15.256Z,41.20
2022-08-30T11:45:55.612Z,41.10
2022-08-30T11:48:54.601Z,41.30
2022-08-30T11:52:33.019Z,41.30
2022-08-30T11:55:50.377Z,41.30
2022-08-30T11:58:51.444Z,41.50
2022-08-30T12:01:49.640Z,41.60
2022-08-30T12:04:47.101Z,41.80
2022-08-30T12:08:01.800Z,42.00
2022-08-30T12:10:57.383Z,42.30
2022-08-30T12:13:55.621Z,42.70
2022-08-30T12:17:02.775Z,42.90
2022-08-30T12:19:52.897Z,43.00
2022-08-30T12:22:42.565Z,43.10
2022-08-30T12:25:35.732Z,43.20
2022-08-30T12:28:27.174Z,44.00
2022-08-30T12:31:21.653Z,43.20
2022-08-30T12:34:21.870Z,43.20
2022-08-30T12:37:24.628Z,43.10
2022-08-30T12:40:20.255Z,43.10
2022-08-30T12:43:38.766Z,43.00
2022-08-30T12:46:32.232Z,42.80
2022-08-30T12:49:28.597Z,42.90
2022-08-30T12:52:23.407Z,43.00
2022-08-30T12:55:19.436Z,43.00
2022-08-30T12:58:12.492Z,43.00
2022-08-30T13:01:27.442Z,43.10
2022-08-30T13:04:23.988Z,43.30
2022-08-30T13:07:13.372Z,43.60
2022-08-30T13:10:20.014Z,43.80
2022-08-30T13:13:09.471Z,44.20
2022-08-30T13:16:10.447Z,44.10
2022-08-30T13:19:27.745Z,44.40
2022-08-30T13:22:30.148Z,44.30
2022-08-30T13:25:19.620Z,44.20
2022-08-30T13:28:09.772Z,44.30
2022-08-30T13:31:01.271Z,44.30
2022-08-30T13:33:55.183Z,44.40
2022-08-30T13:36:49.619Z,44.70
2022-08-30T13:39:39.017Z,45.00
2022-08-30T13:42:32.638Z,44.90
2022-08-30T13:48:33.568Z,45.30
2022-08-30T13:51:22.952Z,45.60
2022-08-30T13:54:14.601Z,45.60
2022-08-30T13:57:04.471Z,45.60
2022-08-30T13:59:54.040Z,45.60
2022-08-30T14:02:46.650Z,45.50
2022-08-30T14:05:50.090Z,45.50
2022-08-30T14:08:47.803Z,45.60
2022-08-30T14:11:40.078Z,45.60
2022-08-30T14:14:42.470Z,45.60
2022-08-30T14:17:35.532Z,45.70
2022-08-30T14:20:25.192Z,45.90
2022-08-30T14:23:17.533Z,46.10
2022-08-30T14:26:14.842Z,46.30
2022-08-30T14:29:09.866Z,46.60
2022-08-30T14:32:00.544Z,46.60
2022-08-30T14:34:49.998Z,46.60
2022-08-30T14:37:40.558Z,46.50
2022-08-30T14:40:31.823Z,46.50
2022-08-30T14:43:21.657Z,46.50
2022-08-30T14:46:13.645Z,46.50
2022-08-30T14:49:03.129Z,46.80
2022-08-30T14:51:55.501Z,46.90
2022-08-30T14:54:44.897Z,46.80
2022-08-30T14:57:35.657Z,46.80
2022-08-30T15:00:28.135Z,46.90
2022-08-30T15:03:17.576Z,47.00
2022-08-30T15:06:08.177Z,47.00
2022-08-30T15:08:58.807Z,47.20
2022-08-30T15:11:48.721Z,47.20
2022-08-30T15:14:40.351Z,47.40
2022-08-30T15:17:29.733Z,47.50
2022-08-30T15:20:20.114Z,47.50
2022-08-30T15:23:10.183Z,47.50
2022-08-30T15:26:00.151Z,47.60
2022-08-30T15:28:49.733Z,47.60
2022-08-30T15:31:41.361Z,47.80
2022-08-30T15:34:32.208Z,48.00
2022-08-30T15:37:22.557Z,48.00
2022-08-30T15:40:12.604Z,48.80
2022-08-30T15:43:04.115Z,48.10
2022-08-30T15:45:55.744Z,48.20
2022-08-30T15:48:47.636Z,48.20
2022-08-30T15:51:41.624Z,48.30
2022-08-30T15:54:35.486Z,48.20
2022-08-30T15:57:25.653Z,48.20
2022-08-30T16:00:16.817Z,48.30
2022-08-30T16:03:06.176Z,48.30
2022-08-30T16:05:56.908Z,48.30
2022-08-30T16:08:46.838Z,48.40
2022-08-30T16:11:37.215Z,48.40
2022-08-30T16:14:27.625Z,48.30
2022-08-30T16:17:17.204Z,48.30
2022-08-30T16:20:10.035Z,48.30
2022-08-30T16:23:02.709Z,48.40
2022-08-30T16:25:52.144Z,48.30
2022-08-30T16:28:42.000Z,48.40
2022-08-30T16:31:34.941Z,48.40
2022-08-30T16:34:24.605Z,48.30
2022-08-30T16:37:16.184Z,48.40
2022-08-30T16:40:11.499Z,48.50
2022-08-30T16:43:00.954Z,48.60
2022-08-30T16:45:53.774Z,48.50
2022-08-30T16:48:45.625Z,48.70
2022-08-30T16:51:36.464Z,48.70
2022-08-30T16:54:25.910Z,48.80
2022-08-30T16:57:16.737Z,48.90
2022-08-30T17:00:08.044Z,49.00
2022-08-30T17:03:03.028Z,49.20
2022-08-30T17:05:53.378Z,49.20
2022-08-30T17:08:46.824Z,49.30
2022-08-30T17:11:40.230Z,49.40
2022-08-30T17:14:31.290Z,49.60
2022-08-30T17:17:22.085Z,49.70
2022-08-30T17:20:12.798Z,49.70
2022-08-30T17:23:02.403Z,49.90
2022-08-30T17:25:52.382Z,50.10
2022-08-30T17:28:42.511Z,50.10
2022-08-30T17:31:35.137Z,50.30
2022-08-30T17:34:26.590Z,50.40
2022-08-30T17:37:17.980Z,50.50
2022-08-30T17:40:14.449Z,50.60
2022-08-30T17:43:04.299Z,50.70
2022-08-30T17:45:53.742Z,50.70
2022-08-30T17:48:46.430Z,50.70
2022-08-30T17:51:36.936Z,50.80
2022-08-30T17:54:27.271Z,50.70
2022-08-30T17:57:16.662Z,50.80
2022-08-30T18:00:08.815Z,50.70
2022-08-30T18:02:58.254Z,50.80
2022-08-30T18:05:49.112Z,50.80
2022-08-30T18:08:38.937Z,50.90
2022-08-30T18:11:28.445Z,50.90
2022-08-30T18:14:18.804Z,51.00
2022-08-30T18:17:09.141Z,51.00
2022-08-30T18:19:58.537Z,51.20
2022-08-30T18:22:49.366Z,51.10
2022-08-30T18:25:40.050Z,51.20
2022-08-30T18:28:30.727Z,51.20
2022-08-30T18:31:20.366Z,51.20
2022-08-30T18:34:12.206Z,51.30
2022-08-30T18:37:02.079Z,51.30
2022-08-30T18:39:53.323Z,51.40
2022-08-30T18:42:42.857Z,51.40
2022-08-30T18:45:33.465Z,51.40
2022-08-30T18:48:23.101Z,51.50
2022-08-30T18:51:20.670Z,51.60
2022-08-30T18:54:11.250Z,51.70
2022-08-30T18:57:02.080Z,51.70
2022-08-30T18:59:51.857Z,51.80
2022-08-30T19:02:43.604Z,51.70
2022-08-30T19:05:35.363Z,51.80
2022-08-30T19:08:24.913Z,51.80
2022-08-30T19:11:14.390Z,51.90
2022-08-30T19:14:07.658Z,52.00
2022-08-30T19:16:57.408Z,52.10
2022-08-30T19:19:52.173Z,52.10
2022-08-30T19:23:08.549Z,52.20
2022-08-30T19:25:53.441Z,52.30
2022-08-30T19:28:43.871Z,52.30
2022-08-30T19:31:35.470Z,52.30
2022-08-30T19:34:24.949Z,52.30
2022-08-30T19:37:17.808Z,52.40
2022-08-30T19:40:12.636Z,52.40
2022-08-30T19:43:02.161Z,52.50
2022-08-30T19:45:55.967Z,52.60
2022-08-30T19:48:46.769Z,52.80
2022-08-30T19:51:36.398Z,52.90
2022-08-30T19:54:26.198Z,52.90
2022-08-30T19:57:16.737Z,53.00
2022-08-30T20:00:09.249Z,53.00
2022-08-30T20:03:05.786Z,52.90
2022-08-30T20:05:57.574Z,53.00
2022-08-30T20:08:47.829Z,53.00
2022-08-30T20:11:42.286Z,53.00
2022-08-30T20:14:32.536Z,53.00
2022-08-30T20:17:22.072Z,53.10
2022-08-30T20:20:16.287Z,53.20
2022-08-30T20:23:11.331Z,53.20
2022-08-30T20:26:05.838Z,53.20
2022-08-30T20:28:55.362Z,53.20
2022-08-30T20:31:45.575Z,53.30
2022-08-30T20:34:35.234Z,53.20
2022-08-30T20:37:24.593Z,53.30
2022-08-30T20:40:16.769Z,53.30
2022-08-30T20:43:07.240Z,53.50
2022-08-30T20:45:57.044Z,53.40
2022-08-30T20:48:47.567Z,54.10
2022-08-30T20:51:36.959Z,53.60
2022-08-30T20:54:28.881Z,53.60
2022-08-30T20:57:24.278Z,53.60
2022-08-30T21:00:15.406Z,53.80
2022-08-30T21:03:07.770Z,53.80
2022-08-30T21:06:16.314Z,53.90
2022-08-30T21:09:06.752Z,53.90
2022-08-30T21:11:56.109Z,54.10
2022-08-30T21:14:46.948Z,54.10
2022-08-30T21:17:36.402Z,54.30
2022-08-30T21:20:30.297Z,54.30
2022-08-30T21:23:19.762Z,54.50
2022-08-30T21:26:10.658Z,54.50
2022-08-30T21:29:00.327Z,54.60
2022-08-30T21:31:51.149Z,54.70
2022-08-30T21:34:54.389Z,54.80
2022-08-30T21:37:43.732Z,54.80
2022-08-30T21:40:35.044Z,54.90
2022-08-30T21:43:24.431Z,55.00
2022-08-30T21:46:14.021Z,55.10
2022-08-30T21:49:09.828Z,55.20
2022-08-30T21:51:59.251Z,55.30
2022-08-30T21:54:48.812Z,55.30
2022-08-30T21:57:38.387Z,55.40
2022-08-30T22:00:27.995Z,55.40
2022-08-30T22:03:17.567Z,55.50
2022-08-30T22:06:08.582Z,55.60
2022-08-30T22:08:58.081Z,55.60
2022-08-30T22:11:48.130Z,55.70
2022-08-30T22:14:39.488Z,55.70
2022-08-30T22:17:28.948Z,55.80
2022-08-30T22:20:18.817Z,55.90
2022-08-30T22:23:10.208Z,55.90
2022-08-30T22:26:01.406Z,56.10
2022-08-30T22:28:51.434Z,56.20
2022-08-30T22:31:41.243Z,56.30
2022-08-30T22:34:32.209Z,56.30
2022-08-30T22:37:21.581Z,56.40
2022-08-30T22:40:12.937Z,56.50
2022-08-30T22:43:02.481Z,56.70
2022-08-30T22:45:51.954Z,56.70
2022-08-30T22:48:46.232Z,56.80
2022-08-30T22:51:36.187Z,56.90
2022-08-30T22:54:25.636Z,56.90
2022-08-30T22:57:19.393Z,57.10
2022-08-30T23:00:15.027Z,57.30
2022-08-30T23:03:05.055Z,57.40
2022-08-30T23:05:54.417Z,57.40
2022-08-30T23:08:44.082Z,57.50
2022-08-30T23:11:33.725Z,57.60
2022-08-30T23:14:24.471Z,57.80
2022-08-30T23:17:13.917Z,57.90
2022-08-30T23:20:03.862Z,58.00
2022-08-30T23:22:58.238Z,58.10
2022-08-30T23:26:04.784Z,58.50
2022-08-30T23:29:11.872Z,58.40
2022-08-30T23:32:20.284Z,58.40
2022-08-30T23:35:30.293Z,58.60
2022-08-30T23:38:37.292Z,58.90
2022-08-30T23:41:44.424Z,59.00
2022-08-30T23:44:51.429Z,59.10
2022-08-30T23:47:59.603Z,59.30
2022-08-30T23:51:06.357Z,59.50
2022-08-30T23:54:13.021Z,59.70
2022-08-30T23:57:19.992Z,59.80
